createdAt,value
2022-09-14T00:04:19.272Z,18.25
2022-09-14T00:08:36.010Z,18.07
2022-09-14T00:12:51.944Z,17.98
2022-09-14T00:17:08.020Z,17.99
2022-09-14T00:21:24.761Z,18.05
2022-09-14T00:25:40.733Z,18.16
2022-09-14T00:29:56.664Z,18.26
2022-09-14T00:34:14.961Z,17.77
2022-09-14T00:38:30.911Z,17.98
2022-09-14T00:42:46.977Z,18.10
2022-09-14T00:47:03.125Z,17.83
2022-09-14T00:51:21.351Z,17.76
2022-09-14T00:55:37.497Z,17.71
2022-09-14T00:59:54.093Z,17.78
2022-09-14T01:04:10.097Z,17.79
2022-09-14T01:09:01.749Z,17.65
2022-09-14T01:13:34.523Z,17.68
2022-09-14T01:18:17.411Z,17.44
2022-09-14T01:22:52.367Z,17.33
2022-09-14T01:27:08.330Z,17.24
2022-09-14T01:31:38.754Z,17.30
2022-09-14T01:35:57.702Z,17.21
2022-09-14T01:40:33.021Z,17.13
2022-09-14T01:44:52.913Z,17.35
2022-09-14T01:49:13.883Z,17.26
2022-09-14T01:53:40.296Z,17.55
2022-09-14T01:58:06.951Z,17.55
2022-09-14T02:02:37.497Z,17.52
2022-09-14T02:06:53.908Z,17.51
2022-09-14T02:11:09.826Z,17.26
2022-09-14T02:15:29.080Z,17.22
2022-09-14T02:19:54.131Z,17.10
2022-09-14T02:24:10.773Z,17.12
2022-09-14T02:28:26.676Z,17.31
2022-09-14T02:33:08.533Z,16.97
2022-09-14T02:37:52.305Z,16.96
2022-09-14T02:42:14.123Z,17.00
2022-09-14T02:46:36.019Z,16.87
2022-09-14T02:51:02.260Z,16.92
2022-09-14T02:55:21.143Z,16.89
2022-09-14T02:59:37.020Z,17.01
2022-09-14T03:03:53.027Z,16.81
2022-09-14T03:08:10.624Z,17.02
2022-09-14T03:12:29.588Z,16.83
2022-09-14T03:16:45.481Z,16.94
2022-09-14T03:21:15.799Z,17.04
2022-09-14T03:25:36.032Z,16.84
2022-09-14T03:29:51.982Z,16.77
2022-09-14T03:34:10.656Z,16.79
2022-09-14T03:38:30.242Z,16.83
2022-09-14T03:42:48.437Z,16.96
2022-09-14T03:47:04.483Z,16.94
2022-09-14T03:51:20.416Z,17.03
2022-09-14T03:55:36.408Z,17.03
2022-09-14T03:59:52.334Z,17.01
2022-09-14T04:04:08.285Z,16.94
2022-09-14T04:08:24.549Z,17.01
2022-09-14T04:12:40.650Z,17.10
2022-09-14T04:16:56.664Z,17.14
2022-09-14T04:21:18.147Z,17.05
2022-09-14T04:25:34.032Z,17.11
2022-09-14T04:29:50.692Z,17.10
2022-09-14T04:34:07.125Z,17.26
2022-09-14T04:38:23.026Z,17.14
2022-09-14T04:42:39.140Z,17.16
2022-09-14T04:46:55.236Z,17.16
2022-09-14T04:51:19.204Z,17.07
2022-09-14T04:55:35.639Z,17.29
2022-09-14T04:59:51.698Z,17.20
2022-09-14T05:04:08.698Z,17.08
2022-09-14T05:08:24.697Z,17.51
2022-09-14T05:12:40.650Z,17.19
2022-09-14T05:17:01.252Z,17.21
2022-09-14T05:21:19.169Z,17.40
2022-09-14T05:25:35.211Z,17.53
2022-09-14T05:29:51.110Z,17.58
2022-09-14T05:34:07.245Z,17.22
2022-09-14T05:38:23.232Z,17.47
2022-09-14T05:42:39.246Z,17.47
2022-09-14T05:46:55.188Z,17.25
2022-09-14T05:51:16.456Z,16.88
2022-09-14T05:55:32.479Z,17.58
2022-09-14T05:59:48.361Z,17.71
2022-09-14T06:04:04.485Z,17.95
2022-09-14T06:08:20.514Z,17.48
2022-09-14T06:12:36.430Z,17.78
2022-09-14T06:16:52.442Z,18.00
2022-09-14T06:21:09.450Z,18.05
2022-09-14T06:25:25.609Z,17.33
2022-09-14T06:29:41.669Z,17.47
2022-09-14T06:33:57.587Z,18.09
2022-09-14T06:38:15.059Z,17.84
2022-09-14T06:42:31.186Z,17.82
2022-09-14T06:46:47.672Z,18.33
2022-09-14T06:51:37.427Z,18.44
2022-09-14T06:55:53.410Z,18.54
2022-09-14T07:00:10.233Z,18.44
2022-09-14T07:04:26.292Z,18.84
2022-09-14T07:08:42.779Z,18.81
2022-09-14T07:13:01.694Z,17.97
2022-09-14T07:17:17.552Z,18.07
2022-09-14T07:21:34.283Z,18.40
2022-09-14T07:26:01.053Z,18.71
2022-09-14T07:30:16.983Z,19.08
2022-09-14T07:34:32.840Z,19.13
2022-09-14T07:38:52.687Z,19.26
2022-09-14T07:43:09.263Z,19.31
2022-09-14T07:47:25.239Z,19.47
2022-09-14T07:51:41.229Z,19.52
2022-09-14T07:56:00.870Z,19.65
2022-09-14T08:00:16.932Z,19.96
2022-09-14T08:04:34.231Z,20.01
2022-09-14T08:08:52.254Z,20.19
2022-09-14T08:13:08.279Z,20.27
2022-09-14T08:17:24.290Z,20.01
2022-09-14T08:21:45.580Z,19.85
2022-09-14T08:26:11.218Z,20.00
2022-09-14T08:30:27.145Z,20.03
2022-09-14T08:34:43.106Z,20.45
2022-09-14T08:43:21.673Z,20.56
2022-09-14T08:47:39.815Z,20.59
2022-09-14T08:51:55.989Z,20.50
2022-09-14T08:56:25.960Z,20.49
2022-09-14T09:01:02.937Z,20.75
2022-09-14T09:05:30.236Z,20.77
2022-09-14T09:09:51.133Z,21.08
2022-09-14T09:14:18.494Z,21.51
2022-09-14T09:18:49.925Z,21.21
2022-09-14T09:23:18.407Z,21.22
2022-09-14T09:27:34.353Z,20.96
2022-09-14T09:31:53.785Z,20.78
2022-09-14T09:36:13.046Z,21.10
2022-09-14T09:40:36.130Z,21.12
2022-09-14T09:45:03.870Z,21.10
2022-09-14T09:49:34.942Z,21.39
2022-09-14T09:54:03.584Z,21.64
2022-09-14T09:58:30.357Z,21.89
2022-09-14T10:02:47.003Z,21.89
2022-09-14T10:07:04.772Z,22.16
2022-09-14T10:11:33.594Z,22.40
2022-09-14T10:15:50.352Z,22.42
2022-09-14T10:20:07.067Z,22.44
2022-09-14T10:24:23.145Z,22.44
2022-09-14T10:28:40.987Z,22.54
2022-09-14T10:33:02.380Z,22.44
2022-09-14T10:37:47.448Z,22.52
2022-09-14T10:42:22.318Z,22.49
2022-09-14T10:46:53.288Z,22.96
2022-09-14T10:51:12.072Z,23.17
2022-09-14T10:55:49.260Z,23.23
2022-09-14T11:00:23.511Z,23.36
2022-09-14T11:05:16.783Z,23.55
2022-09-14T11:10:08.628Z,23.59
2022-09-14T11:14:48.967Z,23.01
2022-09-14T11:19:12.983Z,23.63
2022-09-14T11:24:10.170Z,24.12
2022-09-14T11:28:38.407Z,24.21
2022-09-14T11:33:03.728Z,24.36
2022-09-14T11:37:22.456Z,24.43
2022-09-14T11:41:55.743Z,24.15
2022-09-14T11:46:16.438Z,24.32
2022-09-14T11:50:34.048Z,23.89
2022-09-14T11:54:51.137Z,24.12
2022-09-14T11:59:07.974Z,24.04
2022-09-14T12:03:46.458Z,23.84
2022-09-14T12:08:26.459Z,24.22
2022-09-14T12:12:52.477Z,24.28
2022-09-14T12:21:54.241Z,25.11
2022-09-14T12:26:15.915Z,25.37
2022-09-14T12:30:41.454Z,25.23
2022-09-14T12:35:34.783Z,25.43
2022-09-14T12:40:23.400Z,25.71
2022-09-14T12:44:45.343Z,26.11
2022-09-14T12:49:03.963Z,26.54
2022-09-14T12:53:29.942Z,27.04
2022-09-14T12:57:54.652Z,27.71
2022-09-14T13:02:44.630Z,28.62
2022-09-14T13:07:02.588Z,28.89
2022-09-14T13:11:24.527Z,29.02
2022-09-14T13:15:54.114Z,28.89
2022-09-14T13:20:18.421Z,28.72
2022-09-14T13:24:43.277Z,28.05
2022-09-14T13:29:01.697Z,27.91
2022-09-14T13:33:18.447Z,27.47
2022-09-14T13:37:38.089Z,27.59
2022-09-14T13:41:55.075Z,27.20
2022-09-14T13:46:18.378Z,26.92
2022-09-14T13:50:36.166Z,26.96
2022-09-14T13:55:07.741Z,27.03
2022-09-14T13:59:23.775Z,27.31
2022-09-14T14:03:50.226Z,27.23
2022-09-14T14:08:26.291Z,27.33
2022-09-14T14:12:43.188Z,27.62
2022-09-14T14:17:29.676Z,26.81
2022-09-14T14:21:45.622Z,26.90
2022-09-14T14:26:15.054Z,26.70
2022-09-14T14:30:33.850Z,26.66
2022-09-14T14:34:49.916Z,26.70
2022-09-14T14:39:06.057Z,25.98
2022-09-14T14:43:25.393Z,26.61
2022-09-14T14:47:41.437Z,26.50
2022-09-14T14:51:57.369Z,26.51
2022-09-14T14:56:14.168Z,26.34
2022-09-14T15:00:33.105Z,26.04
2022-09-14T15:04:49.126Z,26.00
2022-09-14T15:09:09.805Z,26.06
2022-09-14T15:13:25.951Z,26.34
2022-09-14T15:17:42.601Z,26.52
2022-09-14T15:22:01.315Z,26.57
2022-09-14T15:26:18.098Z,26.52
2022-09-14T15:30:34.094Z,26.27
2022-09-14T15:34:50.041Z,26.04
2022-09-14T15:39:07.476Z,25.93
2022-09-14T15:43:23.478Z,26.02
2022-09-14T15:47:41.528Z,25.93
2022-09-14T15:51:57.866Z,26.17
2022-09-14T15:56:15.719Z,25.95
2022-09-14T16:00:32.264Z,26.38
2022-09-14T16:04:48.237Z,27.30
2022-09-14T16:09:06.303Z,29.31
2022-09-14T16:13:22.298Z,31.08
2022-09-14T16:17:38.332Z,30.93
2022-09-14T16:21:54.479Z,31.19
2022-09-14T16:26:15.827Z,31.29
2022-09-14T16:30:31.717Z,31.07
2022-09-14T16:34:47.952Z,29.86
2022-09-14T16:39:06.120Z,28.76
2022-09-14T16:43:22.631Z,27.87
2022-09-14T16:47:39.305Z,27.03
2022-09-14T16:51:56.244Z,26.30
2022-09-14T16:56:15.467Z,25.77
2022-09-14T17:00:31.829Z,25.39
2022-09-14T17:04:47.822Z,25.10
2022-09-14T17:09:09.935Z,24.94
2022-09-14T17:13:26.802Z,24.77
2022-09-14T17:17:42.847Z,24.37
2022-09-14T17:21:58.781Z,24.32
2022-09-14T17:26:18.055Z,24.13
2022-09-14T17:30:34.321Z,23.92
2022-09-14T17:34:50.259Z,23.61
2022-09-14T17:39:11.674Z,23.73
2022-09-14T17:43:28.332Z,23.34
2022-09-14T17:47:44.317Z,23.35
2022-09-14T17:52:01.491Z,23.02
2022-09-14T17:56:20.392Z,22.81
2022-09-14T18:00:42.368Z,22.73
2022-09-14T18:05:00.481Z,22.66
2022-09-14T18:09:22.245Z,22.74
2022-09-14T18:13:45.850Z,22.41
2022-09-14T18:18:01.937Z,22.40
2022-09-14T18:22:18.817Z,22.48
2022-09-14T18:26:34.900Z,22.40
2022-09-14T18:30:59.201Z,22.17
2022-09-14T18:35:15.292Z,22.16
2022-09-14T18:39:31.849Z,22.20
2022-09-14T18:43:50.633Z,22.15
2022-09-14T18:48:06.583Z,22.15
2022-09-14T18:52:22.533Z,22.29
2022-09-14T18:56:38.898Z,22.05
2022-09-14T19:00:56.544Z,22.13
2022-09-14T19:05:12.954Z,22.03
2022-09-14T19:09:29.001Z,21.82
2022-09-14T19:13:45.557Z,22.05
2022-09-14T19:18:01.449Z,21.86
2022-09-14T19:22:17.388Z,21.65
2022-09-14T19:26:44.022Z,21.56
2022-09-14T19:31:05.405Z,21.45
2022-09-14T19:35:21.412Z,21.45
2022-09-14T19:39:38.087Z,21.36
2022-09-14T19:43:54.162Z,21.34
2022-09-14T19:48:10.060Z,21.42
2022-09-14T19:52:25.943Z,21.31
2022-09-14T19:56:42.194Z,21.35
2022-09-14T20:00:58.644Z,21.09
2022-09-14T20:05:15.797Z,21.25
2022-09-14T20:09:31.638Z,21.31
2022-09-14T20:13:50.408Z,20.93
2022-09-14T20:18:07.376Z,21.11
2022-09-14T20:22:23.333Z,21.30
2022-09-14T20:26:39.229Z,21.03
2022-09-14T20:30:59.330Z,20.43
2022-09-14T20:35:15.321Z,20.61
2022-09-14T20:39:31.875Z,20.67
2022-09-14T20:43:49.072Z,20.65
2022-09-14T20:48:05.026Z,20.65
2022-09-14T20:52:20.965Z,20.82
2022-09-14T20:56:37.093Z,20.65
2022-09-14T21:01:05.701Z,20.81
2022-09-14T21:05:21.704Z,20.87
2022-09-14T21:09:38.011Z,20.80
2022-09-14T21:13:55.467Z,20.61
2022-09-14T21:18:11.698Z,20.68
2022-09-14T21:22:27.655Z,20.77
2022-09-14T21:26:44.216Z,20.66
2022-09-14T21:31:14.938Z,20.87
2022-09-14T21:35:33.633Z,20.55
2022-09-14T21:39:49.746Z,20.62
2022-09-14T21:44:05.987Z,20.74
2022-09-14T21:48:22.052Z,20.61
2022-09-14T21:52:44.790Z,20.89
2022-09-14T21:57:00.678Z,20.95
2022-09-14T22:01:17.071Z,20.87
2022-09-14T22:05:33.338Z,20.57
2022-09-14T22:09:49.364Z,20.73
2022-09-14T22:14:08.062Z,20.70
2022-09-14T22:18:24.002Z,20.67
2022-09-14T22:22:40.392Z,20.69
2022-09-14T22:26:57.429Z,20.27
2022-09-14T22:31:13.831Z,20.54
2022-09-14T22:35:29.843Z,20.50
2022-09-14T22:39:47.011Z,20.55
2022-09-14T22:44:04.545Z,20.41
2022-09-14T22:48:21.321Z,20.65
2022-09-14T22:52:37.215Z,20.51
2022-09-14T22:56:53.253Z,20.32
2022-09-14T23:01:16.095Z,20.14
2022-09-14T23:05:33.178Z,19.33
2022-09-14T23:09:49.248Z,19.81
2022-09-14T23:14:05.300Z,20.10
2022-09-14T23:18:21.236Z,20.08
2022-09-14T23:22:37.605Z,20.26
2022-09-14T23:26:53.496Z,20.18
2022-09-14T23:31:09.545Z,19.92
2022-09-14T23:35:26.299Z,20.38
2022-09-14T23:39:42.445Z,20.45
2022-09-14T23:43:58.492Z,20.67
2022-09-14T23:48:15.092Z,20.96
2022-09-14T23:52:31.213Z,20.92
2022-09-14T23:56:47.398Z,20.92
